METAR Data
IDs: Format: Raw Decoded Include TAF

Data at: 1945 UTC 13 Nov 2019

METAR for:KMCW (Mason City Muni, IA, US)
Text:KMCW 131912Z AUTO 24008KT 5SM -SN BKN043 OVC050 M03/M06 A2993 RMK AO2 P0000 T10281061
Temperature: -2.8°C ( 27°F)
Dewpoint: -6.1°C ( 21°F) [RH = 78%]
Pressure (altimeter):29.93 inches Hg (1013.6 mb)
Winds:from the WSW (240 degrees) at 9 MPH (8 knots; 4.1 m/s)
Visibility: 5 sm ( 8 km)
Ceiling:4300 feet AGL
Clouds: broken clouds at 4300 feet AGL, overcast cloud deck at 5000 feet AGL
Weather:-SN (light snow)
QC Flag:automated observation with no human augmentation